Time;durP1;ratioP1;P1;durP2;ratioP2;P2;SDS_P1;SDS_P2;PMS_P1;PMS_P2;Temp;Humidity;BMP_temperature;BMP_pressure;BME280_temperature;BME280_humidity;BME280_pressure;Samples;Min_cycle;Max_cycle;Signal;HPM_P1;HPM_P2
2023/01/23 00:02:09;;;;;;;10.80;5.57;;;2.70;99.90;;;;;;4954019;28;20463;-65
2023/01/23 00:04:36;;;;;;;8.85;5.53;;;2.70;99.90;;;;;;4955600;28;20050;-65
2023/01/23 00:07:04;;;;;;;10.93;6.05;;;2.70;99.90;;;;;;4972458;28;20447;-65
2023/01/23 00:09:31;;;;;;;10.07;6.07;;;2.70;99.90;;;;;;4972148;28;20053;-65
2023/01/23 00:11:58;;;;;;;14.45;5.22;;;2.70;99.90;;;;;;4955918;28;20129;-65
2023/01/23 00:14:25;;;;;;;11.77;5.85;;;2.70;99.90;;;;;;4955633;28;20053;-64
2023/01/23 00:16:52;;;;;;;8.30;5.40;;;2.70;99.90;;;;;;4955114;28;20047;-65
2023/01/23 00:19:19;;;;;;;9.70;4.88;;;2.70;99.90;;;;;;4972226;28;20074;-65
2023/01/23 00:21:46;;;;;;;10.10;5.05;;;2.70;99.90;;;;;;4956022;28;20388;-65
2023/01/23 00:24:15;;;;;;;8.93;5.22;;;3.10;99.90;;;;;;4954933;28;20039;-65
2023/01/23 00:26:42;;;;;;;11.85;5.18;;;2.70;99.90;;;;;;4971174;28;20106;-65
2023/01/23 00:29:09;;;;;;;8.52;4.50;;;2.70;99.90;;;;;;4971872;28;20487;-65
2023/01/23 00:31:38;;;;;;;8.63;5.15;;;2.70;99.90;;;;;;4955261;28;20050;-66
2023/01/23 00:34:06;;;;;;;11.38;5.18;;;2.60;99.90;;;;;;4955084;28;20089;-66
2023/01/23 00:36:36;;;;;;;11.25;5.38;;;2.60;99.90;;;;;;4955545;28;20058;-65
2023/01/23 00:39:05;;;;;;;13.32;5.85;;;2.60;99.90;;;;;;4954828;28;20051;-65
2023/01/23 00:41:34;;;;;;;7.30;4.70;;;2.60;99.90;;;;;;4955532;28;20087;-65
2023/01/23 00:44:01;;;;;;;7.45;4.82;;;2.70;99.90;;;;;;4954858;28;20058;-65
2023/01/23 00:46:28;;;;;;;10.60;5.43;;;2.70;99.90;;;;;;4958887;28;20062;-65
2023/01/23 00:48:55;;;;;;;10.38;5.13;;;2.60;99.90;;;;;;4973761;28;20066;-64
2023/01/23 00:51:22;;;;;;;9.70;5.97;;;2.70;99.90;;;;;;4975731;28;20054;-65
2023/01/23 00:53:49;;;;;;;11.02;5.03;;;2.70;99.90;;;;;;4958914;28;20454;-65
2023/01/23 00:56:16;;;;;;;7.82;5.10;;;2.70;99.90;;;;;;4976095;28;20047;-66
2023/01/23 00:58:44;;;;;;;9.88;5.10;;;2.70;99.90;;;;;;4975282;28;20049;-65
2023/01/23 01:01:11;;;;;;;13.65;6.28;;;2.70;99.90;;;;;;4975615;28;20069;-64
2023/01/23 01:03:38;;;;;;;12.38;5.65;;;2.60;99.90;;;;;;4958955;28;20058;-64
2023/01/23 01:06:05;;;;;;;13.43;5.60;;;2.70;99.90;;;;;;4958388;28;20057;-64
2023/01/23 01:08:33;;;;;;;9.93;5.72;;;2.70;99.90;;;;;;4975655;28;20400;-64
2023/01/23 01:11:00;;;;;;;8.38;5.07;;;2.70;99.90;;;;;;4958803;28;20365;-64
2023/01/23 01:13:27;;;;;;;8.00;5.05;;;2.70;99.90;;;;;;4972440;28;20058;-64
2023/01/23 01:15:56;;;;;;;10.55;5.18;;;2.60;99.90;;;;;;4975425;28;20065;-64
2023/01/23 01:18:23;;;;;;;11.40;5.10;;;2.70;99.90;;;;;;4975806;28;20054;-64
2023/01/23 01:20:50;;;;;;;8.23;4.93;;;2.70;99.90;;;;;;4958133;28;20518;-64
2023/01/23 01:23:17;;;;;;;12.02;5.38;;;2.70;99.90;;;;;;4958602;28;20455;-64
2023/01/23 01:25:45;;;;;;;7.40;4.85;;;2.60;99.90;;;;;;4975593;28;20050;-64
2023/01/23 01:28:12;;;;;;;10.07;5.13;;;2.70;99.90;;;;;;4957424;28;20061;-63
2023/01/23 01:30:39;;;;;;;9.05;6.03;;;2.60;99.90;;;;;;4975186;28;20458;-63
2023/01/23 01:33:07;;;;;;;7.22;4.70;;;2.70;99.90;;;;;;4958090;28;20047;-63
2023/01/23 01:35:35;;;;;;;9.00;4.85;;;2.70;99.90;;;;;;4974618;28;20081;-63
2023/01/23 01:38:02;;;;;;;8.90;5.43;;;2.70;99.90;;;;;;4973090;28;20049;-63
2023/01/23 01:40:32;;;;;;;9.88;4.93;;;2.70;99.90;;;;;;4956850;28;20057;-63
2023/01/23 01:43:02;;;;;;;11.07;6.03;;;2.70;99.90;;;;;;4974990;28;20058;-63
2023/01/23 01:46:04;;;;;;;10.18;5.38;;;2.70;99.90;;;;;;4973500;28;20069;-62
2023/01/23 01:48:36;;;;;;;9.40;5.03;;;2.70;99.90;;;;;;4974195;28;20133;-62
2023/01/23 01:51:09;;;;;;;8.07;5.22;;;2.70;99.90;;;;;;4974242;28;20061;-63
2023/01/23 01:53:37;;;;;;;8.45;4.90;;;2.70;99.90;;;;;;4974233;28;20534;-64
2023/01/23 01:56:06;;;;;;;8.77;5.53;;;2.70;99.90;;;;;;4956322;28;20042;-63
2023/01/23 01:58:33;;;;;;;10.30;5.20;;;2.70;99.90;;;;;;4974687;28;20050;-62
2023/01/23 02:01:01;;;;;;;11.25;5.40;;;2.70;99.90;;;;;;4974549;28;20050;-63
2023/01/23 02:03:28;;;;;;;23.48;5.57;;;2.70;99.90;;;;;;4974601;28;20098;-63
2023/01/23 02:05:56;;;;;;;9.82;5.57;;;2.70;99.90;;;;;;4973742;28;20752;-63
2023/01/23 02:08:28;;;;;;;9.68;5.60;;;2.70;99.90;;;;;;4974410;28;20051;-63
2023/01/23 02:10:55;;;;;;;9.90;5.95;;;2.70;99.90;;;;;;4972583;28;20069;-63
2023/01/23 02:13:29;;;;;;;11.23;5.47;;;2.70;99.90;;;;;;4957565;28;20047;-63
2023/01/23 02:15:58;;;;;;;8.80;5.38;;;2.70;99.90;;;;;;4974109;28;20061;-63
2023/01/23 02:18:25;;;;;;;9.75;4.95;;;2.60;99.90;;;;;;4957029;28;20065;-63
2023/01/23 02:20:54;;;;;;;9.70;5.30;;;2.60;99.90;;;;;;4972281;28;20097;-63
2023/01/23 02:23:36;;;;;;;9.90;4.97;;;2.60;99.90;;;;;;4973691;28;20046;-63
2023/01/23 02:26:07;;;;;;;7.03;4.75;;;2.60;99.90;;;;;;4957217;28;20058;-63
2023/01/23 02:28:38;;;;;;;9.85;6.00;;;2.60;99.90;;;;;;4957432;28;20459;-64
2023/01/23 02:31:06;;;;;;;11.18;5.70;;;2.60;99.90;;;;;;4956917;28;20137;-63
2023/01/23 02:33:50;;;;;;;8.68;4.90;;;2.60;99.90;;;;;;4956999;28;20462;-63
2023/01/23 02:36:19;;;;;;;12.68;6.50;;;2.60;99.90;;;;;;4974191;28;20054;-64
2023/01/23 02:38:53;;;;;;;7.82;5.57;;;2.60;99.90;;;;;;4972925;28;20054;-63
2023/01/23 02:41:27;;;;;;;12.10;6.90;;;2.60;99.90;;;;;;4957348;28;20054;-63
2023/01/23 02:43:55;;;;;;;11.68;5.70;;;2.60;99.90;;;;;;4955589;28;20050;-64
2023/01/23 02:46:24;;;;;;;9.88;5.40;;;2.60;99.90;;;;;;4968926;28;20106;-63
2023/01/23 02:48:51;;;;;;;12.40;6.03;;;2.60;99.90;;;;;;4973595;28;20047;-63
2023/01/23 02:51:19;;;;;;;11.38;5.25;;;2.60;99.90;;;;;;4973509;28;20046;-63
2023/01/23 02:53:46;;;;;;;11.20;6.07;;;2.60;99.90;;;;;;4971888;28;20053;-64
2023/01/23 02:56:14;;;;;;;10.02;5.75;;;2.60;99.90;;;;;;4973371;28;20122;-63
2023/01/23 03:01:34;;;;;;;12.18;5.63;;;2.60;99.90;;;;;;4920741;28;20055;-63
2023/01/23 03:04:03;;;;;;;13.02;6.25;;;2.60;99.90;;;;;;4973393;28;20047;-62
2023/01/23 03:06:35;;;;;;;10.73;5.53;;;1.50;99.90;;;;;;4973289;28;20051;-63
2023/01/23 03:09:04;;;;;;;11.98;5.63;;;2.60;99.90;;;;;;4956328;28;20050;-63
2023/01/23 03:11:32;;;;;;;9.82;5.65;;;2.70;99.90;;;;;;4973824;28;20051;-62
2023/01/23 03:14:00;;;;;;;6.30;4.90;;;2.60;99.90;;;;;;4955236;28;20082;-63
2023/01/23 03:16:28;;;;;;;10.82;5.70;;;2.60;99.90;;;;;;4973448;28;20500;-63
2023/01/23 03:18:57;;;;;;;11.48;5.97;;;2.70;99.90;;;;;;4969353;28;20061;-63
2023/01/23 03:21:24;;;;;;;10.60;5.20;;;2.70;99.90;;;;;;4972945;28;20055;-63
2023/01/23 03:23:51;;;;;;;12.98;6.30;;;2.70;99.90;;;;;;4956208;28;20050;-63
2023/01/23 03:26:18;;;;;;;10.35;5.40;;;2.60;99.90;;;;;;4972634;28;20054;-64
2023/01/23 03:31:30;;;;;;;10.70;5.38;;;2.60;99.90;;;;;;4973302;28;20062;-63
2023/01/23 03:33:57;;;;;;;9.23;5.15;;;2.60;99.90;;;;;;4955366;28;20051;-63
2023/01/23 03:36:24;;;;;;;13.45;6.03;;;2.60;99.90;;;;;;4955395;28;20059;-63
2023/01/23 03:41:37;;;;;;;11.48;6.50;;;2.60;99.90;;;;;;4934330;28;20724;-64
2023/01/23 03:44:04;;;;;;;9.38;5.60;;;2.60;99.90;;;;;;4973017;28;20070;-64
2023/01/23 03:46:32;;;;;;;9.05;5.80;;;2.60;99.90;;;;;;4955886;28;20540;-63
2023/01/23 03:48:59;;;;;;;7.80;5.45;;;2.60;99.90;;;;;;4972357;28;20057;-63
2023/01/23 03:51:26;;;;;;;7.68;5.20;;;2.80;99.90;;;;;;4955914;28;20055;-63
2023/01/23 03:53:52;;;;;;;10.10;5.88;;;2.60;99.90;;;;;;4955991;28;20042;-63
2023/01/23 03:56:19;;;;;;;14.48;6.80;;;2.60;99.90;;;;;;4954952;28;20514;-64
2023/01/23 03:58:46;;;;;;;7.53;5.13;;;2.60;99.90;;;;;;4970590;28;20051;-64
2023/01/23 04:01:13;;;;;;;11.10;5.90;;;2.80;99.90;;;;;;4955189;28;20047;-63
2023/01/23 04:03:42;;;;;;;14.05;5.18;;;2.70;99.90;;;;;;4956100;28;20051;-64
2023/01/23 04:06:08;;;;;;;11.30;5.82;;;2.60;99.90;;;;;;4955662;28;20053;-62
2023/01/23 04:08:35;;;;;;;9.15;5.20;;;2.60;99.90;;;;;;4955363;28;20058;-63
2023/01/23 04:11:05;;;;;;;9.85;5.60;;;2.60;99.90;;;;;;4972562;28;20384;-63
2023/01/23 04:13:32;;;;;;;11.35;5.30;;;2.60;99.90;;;;;;4955660;28;20122;-63
2023/01/23 04:15:59;;;;;;;9.73;5.63;;;2.60;99.90;;;;;;4972205;28;20050;-63
2023/01/23 04:18:26;;;;;;;8.45;4.93;;;2.60;99.90;;;;;;4972391;28;20054;-63
2023/01/23 04:20:55;;;;;;;11.50;6.10;;;2.60;99.90;;;;;;4977870;28;20047;-63
2023/01/23 04:23:23;;;;;;;11.40;6.18;;;2.60;99.90;;;;;;4959847;28;20050;-63
2023/01/23 04:25:50;;;;;;;8.38;5.22;;;2.60;99.90;;;;;;4978691;28;20046;-63
2023/01/23 04:28:17;;;;;;;7.72;5.25;;;2.60;99.90;;;;;;4961940;28;20055;-63
2023/01/23 04:30:44;;;;;;;11.93;4.75;;;2.60;99.90;;;;;;4959221;28;20074;-63
2023/01/23 04:33:11;;;;;;;14.63;5.40;;;2.60;99.90;;;;;;4978980;28;20054;-63
2023/01/23 04:35:38;;;;;;;11.38;4.90;;;2.50;99.90;;;;;;4961698;28;20050;-63
2023/01/23 04:38:06;;;;;;;10.45;5.00;;;2.50;99.90;;;;;;4978237;28;20061;-63
2023/01/23 04:40:33;;;;;;;8.77;5.10;;;2.50;99.90;;;;;;4961655;28;20057;-63
2023/01/23 04:43:00;;;;;;;11.77;5.95;;;2.50;99.90;;;;;;4961881;28;20046;-63
2023/01/23 04:45:27;;;;;;;9.40;5.30;;;2.60;99.90;;;;;;4961299;28;20087;-63
2023/01/23 04:47:54;;;;;;;12.52;5.60;;;2.60;99.90;;;;;;4959325;28;20410;-63
2023/01/23 04:50:20;;;;;;;8.15;5.18;;;2.60;99.90;;;;;;4960453;28;20051;-64
2023/01/23 04:52:47;;;;;;;11.50;5.57;;;2.70;99.90;;;;;;4961345;28;20062;-63
2023/01/23 04:55:16;;;;;;;9.60;5.20;;;2.50;99.90;;;;;;4961182;28;20528;-63
2023/01/23 04:57:42;;;;;;;7.85;5.50;;;2.60;99.90;;;;;;4978177;28;20047;-63
2023/01/23 05:00:11;;;;;;;8.43;5.93;;;2.70;99.90;;;;;;4978774;28;20062;-63
2023/01/23 05:02:37;;;;;;;7.97;5.15;;;2.60;99.90;;;;;;4961275;28;20051;-63
2023/01/23 05:05:06;;;;;;;7.43;5.30;;;2.50;99.90;;;;;;4960522;28;20514;-63
2023/01/23 05:07:33;;;;;;;8.77;5.70;;;2.50;99.90;;;;;;4976766;28;20074;-63
2023/01/23 05:10:00;;;;;;;11.00;5.57;;;2.50;99.90;;;;;;4978585;28;20077;-64
2023/01/23 05:12:28;;;;;;;11.27;5.40;;;2.50;99.90;;;;;;4977756;28;20051;-62
2023/01/23 05:14:55;;;;;;;9.32;5.63;;;2.50;99.90;;;;;;4990082;28;20054;-63
2023/01/23 05:17:22;;;;;;;12.95;6.10;;;2.50;99.90;;;;;;4978348;28;20510;-63
2023/01/23 05:19:49;;;;;;;8.02;5.40;;;2.50;99.90;;;;;;4976417;28;20078;-63
2023/01/23 05:22:16;;;;;;;13.82;6.38;;;2.50;99.90;;;;;;4977722;28;20495;-64
2023/01/23 05:24:43;;;;;;;9.30;6.05;;;2.50;99.90;;;;;;4959971;28;20074;-63
2023/01/23 05:27:10;;;;;;;9.35;5.78;;;2.50;99.90;;;;;;4977584;28;20046;-63
2023/01/23 05:29:39;;;;;;;14.23;6.28;;;2.50;99.90;;;;;;4961491;28;20057;-63
2023/01/23 05:32:06;;;;;;;12.30;6.03;;;2.50;99.90;;;;;;4974076;28;20065;-63
2023/01/23 05:34:33;;;;;;;12.35;6.53;;;2.50;99.90;;;;;;4957679;28;20066;-63
2023/01/23 05:37:00;;;;;;;9.45;6.25;;;2.50;99.90;;;;;;4961084;28;20054;-63
2023/01/23 05:39:26;;;;;;;14.88;6.35;;;2.50;99.90;;;;;;4957808;28;20061;-63
2023/01/23 05:41:53;;;;;;;12.50;6.28;;;2.50;99.90;;;;;;4974751;28;20050;-62
2023/01/23 05:44:20;;;;;;;15.52;7.03;;;2.50;99.90;;;;;;4958408;28;20042;-63
2023/01/23 05:46:48;;;;;;;14.98;6.50;;;2.50;99.90;;;;;;4974375;28;20058;-64
2023/01/23 05:49:15;;;;;;;11.27;6.68;;;2.70;99.90;;;;;;4955314;28;20503;-63
2023/01/23 05:51:42;;;;;;;10.60;7.00;;;2.50;99.90;;;;;;4957753;28;20054;-63
2023/01/23 05:54:10;;;;;;;8.85;6.88;;;2.50;99.90;;;;;;4974655;28;20051;-63
2023/01/23 05:56:37;;;;;;;12.90;6.45;;;2.50;99.90;;;;;;4957937;28;20058;-63
2023/01/23 05:59:04;;;;;;;11.18;6.55;;;2.50;99.90;;;;;;4974467;28;20054;-63
2023/01/23 06:01:31;;;;;;;10.02;6.05;;;2.60;99.90;;;;;;4973824;28;20384;-62
2023/01/23 06:03:59;;;;;;;10.77;6.50;;;2.50;99.90;;;;;;4974237;28;20058;-62
2023/01/23 06:06:26;;;;;;;8.02;6.45;;;2.50;99.90;;;;;;4957417;28;20055;-62
2023/01/23 06:08:53;;;;;;;11.07;6.82;;;2.50;99.90;;;;;;4957114;28;20384;-63
2023/01/23 06:11:20;;;;;;;15.07;6.05;;;2.50;99.90;;;;;;4974120;28;20054;-63
2023/01/23 06:13:47;;;;;;;13.80;6.10;;;2.50;99.90;;;;;;4957192;28;20065;-63
2023/01/23 06:16:13;;;;;;;18.73;7.90;;;2.50;99.90;;;;;;4973264;28;20050;-63
2023/01/23 06:18:40;;;;;;;11.50;6.00;;;2.50;99.90;;;;;;4974876;28;20046;-63
2023/01/23 06:21:09;;;;;;;10.52;6.60;;;2.50;99.90;;;;;;4957087;28;20050;-63
2023/01/23 06:23:36;;;;;;;9.88;6.97;;;2.50;99.90;;;;;;4973439;28;20059;-63
2023/01/23 06:26:03;;;;;;;9.27;6.28;;;2.50;99.90;;;;;;4973666;28;20058;-63
2023/01/23 06:28:30;;;;;;;10.82;5.95;;;2.50;99.90;;;;;;4957280;28;20050;-63
2023/01/23 06:31:02;;;;;;;11.20;6.30;;;2.60;99.90;;;;;;4973360;28;20122;-63
2023/01/23 06:33:29;;;;;;;9.00;6.28;;;2.50;99.90;;;;;;4973342;28;20137;-63
2023/01/23 06:36:00;;;;;;;13.05;7.00;;;2.50;99.90;;;;;;4956203;28;20232;-63
2023/01/23 06:38:28;;;;;;;9.70;6.07;;;2.50;99.90;;;;;;4957277;28;20059;-62
2023/01/23 06:40:55;;;;;;;12.55;6.50;;;2.50;99.90;;;;;;4973725;28;20074;-63
2023/01/23 06:43:24;;;;;;;10.65;6.28;;;2.50;99.90;;;;;;4955970;28;20055;-63
2023/01/23 06:45:51;;;;;;;13.68;6.95;;;2.60;99.90;;;;;;4957319;28;20062;-64
2023/01/23 06:48:18;;;;;;;13.13;6.78;;;2.50;99.90;;;;;;4955059;28;20051;-62
2023/01/23 06:50:45;;;;;;;9.65;6.20;;;2.50;99.90;;;;;;4956631;28;20054;-62
2023/01/23 06:53:14;;;;;;;11.05;7.05;;;2.50;99.90;;;;;;4956384;28;20514;-62
2023/01/23 06:55:43;;;;;;;13.85;6.97;;;2.50;99.90;;;;;;4956903;28;20360;-62
2023/01/23 06:58:10;;;;;;;11.57;6.97;;;2.60;99.90;;;;;;4955647;28;20566;-63
2023/01/23 07:00:37;;;;;;;10.20;6.97;;;2.50;99.90;;;;;;4956317;28;20061;-64
2023/01/23 07:03:04;;;;;;;16.98;7.22;;;2.60;99.90;;;;;;4949975;28;20122;-64
2023/01/23 07:05:31;;;;;;;13.48;6.15;;;2.60;99.90;;;;;;4969910;28;20046;-63
2023/01/23 07:07:58;;;;;;;14.20;6.90;;;2.60;99.90;;;;;;4962221;28;20490;-63
2023/01/23 07:10:25;;;;;;;10.60;6.75;;;2.60;99.90;;;;;;4974011;28;20050;-62
2023/01/23 07:12:54;;;;;;;16.00;7.20;;;2.50;99.90;;;;;;4971888;28;20122;-63
2023/01/23 07:15:20;;;;;;;9.15;6.55;;;2.50;99.90;;;;;;4955436;28;20059;-63
2023/01/23 07:17:47;;;;;;;14.70;6.63;;;2.50;99.90;;;;;;4973279;28;20051;-64
2023/01/23 07:20:15;;;;;;;10.63;6.82;;;2.50;99.90;;;;;;4955680;28;20053;-64
2023/01/23 07:22:41;;;;;;;14.52;6.80;;;2.60;99.90;;;;;;4966158;28;20051;-63
2023/01/23 07:25:09;;;;;;;12.75;6.90;;;2.50;99.90;;;;;;4967727;28;20059;-63
2023/01/23 07:27:36;;;;;;;13.40;7.22;;;2.60;99.90;;;;;;4973736;28;20046;-63
2023/01/23 07:30:05;;;;;;;13.15;6.40;;;2.60;99.90;;;;;;4954120;28;20058;-63
2023/01/23 07:32:32;;;;;;;9.13;6.60;;;2.60;99.90;;;;;;4963997;28;20059;-63
2023/01/23 07:34:59;;;;;;;10.65;7.07;;;2.60;99.90;;;;;;4952339;28;20051;-63
2023/01/23 07:37:26;;;;;;;12.82;7.22;;;2.60;99.90;;;;;;4971635;28;20058;-63
2023/01/23 07:39:53;;;;;;;11.80;6.65;;;2.70;99.90;;;;;;4971746;28;20095;-64
2023/01/23 07:42:20;;;;;;;12.98;6.88;;;2.70;99.90;;;;;;4953029;28;20483;-63
2023/01/23 07:44:47;;;;;;;8.73;6.18;;;2.70;99.90;;;;;;4971800;28;20057;-63
2023/01/23 07:47:15;;;;;;;13.38;6.88;;;2.70;99.90;;;;;;4969886;28;20058;-63
2023/01/23 07:49:42;;;;;;;11.88;6.07;;;2.70;99.90;;;;;;4974288;28;21345;-63
2023/01/23 07:52:09;;;;;;;12.13;6.90;;;2.70;99.90;;;;;;4954918;28;20054;-64
2023/01/23 07:54:36;;;;;;;10.50;6.60;;;2.70;99.90;;;;;;4952377;28;20054;-64
2023/01/23 07:57:03;;;;;;;13.05;5.82;;;2.70;99.90;;;;;;4971406;28;20054;-63
2023/01/23 07:59:30;;;;;;;11.65;6.60;;;2.70;99.90;;;;;;4971179;28;20495;-62
2023/01/23 08:01:58;;;;;;;9.70;6.55;;;2.70;99.90;;;;;;4952304;28;20059;-63
2023/01/23 08:04:26;;;;;;;11.93;6.60;;;2.70;99.90;;;;;;4951098;28;20050;-63
2023/01/23 08:06:53;;;;;;;11.23;6.75;;;2.70;99.90;;;;;;4967812;28;20046;-63
2023/01/23 08:09:20;;;;;;;9.27;6.47;;;2.70;99.90;;;;;;4970170;28;20873;-63
2023/01/23 08:11:47;;;;;;;10.68;6.72;;;2.70;99.90;;;;;;4951907;28;20058;-63
2023/01/23 08:14:14;;;;;;;10.20;5.90;;;2.70;99.90;;;;;;4961929;28;20408;-63
2023/01/23 08:16:41;;;;;;;9.80;5.78;;;2.80;99.90;;;;;;4953050;28;20042;-63
2023/01/23 08:19:08;;;;;;;12.07;5.75;;;2.80;99.90;;;;;;4970914;28;20047;-63
2023/01/23 08:21:36;;;;;;;8.93;5.60;;;2.80;99.90;;;;;;4953920;28;20047;-63
2023/01/23 08:24:04;;;;;;;9.63;6.25;;;2.80;99.90;;;;;;4971270;28;20047;-63
2023/01/23 08:26:32;;;;;;;11.00;6.22;;;2.80;99.90;;;;;;4973012;28;20471;-63
2023/01/23 08:28:59;;;;;;;8.65;5.90;;;2.90;99.90;;;;;;4953333;28;20537;-63
2023/01/23 08:31:26;;;;;;;9.98;6.18;;;2.80;99.90;;;;;;4973648;28;20062;-63
2023/01/23 08:33:53;;;;;;;8.07;5.72;;;2.80;99.90;;;;;;4971770;28;20058;-63
2023/01/23 08:36:20;;;;;;;8.68;5.70;;;2.90;99.90;;;;;;4971496;28;20054;-62
2023/01/23 08:38:48;;;;;;;9.60;5.55;;;2.90;99.90;;;;;;4974741;28;20047;-62
2023/01/23 08:41:16;;;;;;;9.40;4.93;;;2.90;99.90;;;;;;4972195;28;20053;-62
2023/01/23 08:43:43;;;;;;;8.55;5.55;;;2.90;99.90;;;;;;4972034;28;20055;-61
2023/01/23 08:46:11;;;;;;;6.55;5.20;;;3.00;99.90;;;;;;4952290;28;20084;-61
2023/01/23 08:48:38;;;;;;;7.72;5.20;;;3.00;99.90;;;;;;4957508;28;20062;-63
2023/01/23 08:51:08;;;;;;;7.15;5.00;;;3.00;99.90;;;;;;4955427;28;20055;-61
2023/01/23 08:53:35;;;;;;;8.73;5.10;;;3.00;99.90;;;;;;4968512;28;20047;-61
2023/01/23 08:56:06;;;;;;;6.55;4.63;;;3.10;99.90;;;;;;4956228;28;20055;-62
2023/01/23 08:58:33;;;;;;;6.85;4.72;;;3.00;99.90;;;;;;4967210;28;20058;-61
2023/01/23 09:01:00;;;;;;;7.90;5.00;;;3.10;99.90;;;;;;4958303;28;20061;-62
2023/01/23 09:03:27;;;;;;;6.28;4.50;;;3.10;99.90;;;;;;4959375;28;20511;-61
2023/01/23 09:05:54;;;;;;;6.43;4.60;;;3.10;99.90;;;;;;4975761;28;20046;-61
2023/01/23 09:08:21;;;;;;;6.18;4.40;;;3.10;99.90;;;;;;4964080;28;20062;-61
2023/01/23 09:10:48;;;;;;;5.93;4.60;;;3.10;99.90;;;;;;4975147;28;20462;-62
2023/01/23 09:13:18;;;;;;;7.07;5.07;;;3.20;99.90;;;;;;4958271;28;20051;-62
2023/01/23 09:15:46;;;;;;;10.37;4.77;;;3.30;99.90;;;;;;4974550;28;20415;-61
2023/01/23 09:18:12;;;;;;;8.63;4.18;;;3.30;99.90;;;;;;4972458;28;20514;-61
2023/01/23 09:20:40;;;;;;;8.35;4.45;;;3.30;99.90;;;;;;4967802;28;20055;-61
2023/01/23 09:23:07;;;;;;;5.80;4.68;;;3.30;99.90;;;;;;4956957;28;20505;-62
2023/01/23 09:25:34;;;;;;;7.38;4.82;;;3.30;99.90;;;;;;4974209;28;20051;-62
2023/01/23 09:28:01;;;;;;;8.88;5.03;;;3.30;99.90;;;;;;4971226;28;20047;-62
2023/01/23 09:30:29;;;;;;;9.25;5.10;;;3.30;99.90;;;;;;4976523;28;20074;-62
2023/01/23 09:32:56;;;;;;;8.10;4.53;;;3.40;99.90;;;;;;4958090;28;20058;-61
2023/01/23 09:35:23;;;;;;;5.70;3.80;;;3.40;99.90;;;;;;4974019;28;20062;-61
2023/01/23 09:38:03;;;;;;;6.20;4.28;;;3.40;99.90;;;;;;4974803;28;20492;-62
2023/01/23 09:40:33;;;;;;;6.55;4.40;;;3.40;99.90;;;;;;4974298;28;20055;-62
2023/01/23 09:43:08;;;;;;;6.72;4.32;;;3.40;99.90;;;;;;4976366;28;20514;-61
2023/01/23 09:45:39;;;;;;;9.10;4.75;;;3.40;99.90;;;;;;4962421;28;20062;-61
2023/01/23 09:48:22;;;;;;;6.35;4.55;;;3.50;99.90;;;;;;4972650;28;20050;-62
2023/01/23 09:50:55;;;;;;;8.15;4.40;;;3.50;99.90;;;;;;4974707;28;20133;-62
2023/01/23 09:53:25;;;;;;;7.00;4.35;;;3.50;99.90;;;;;;4974232;28;20051;-62
2023/01/23 09:55:59;;;;;;;4.93;4.20;;;3.50;99.90;;;;;;4969647;28;20046;-62
2023/01/23 09:58:34;;;;;;;6.00;4.25;;;3.50;99.90;;;;;;4973060;28;20293;-62
2023/01/23 10:01:02;;;;;;;5.90;4.10;;;3.50;99.90;;;;;;4958548;28;20078;-62
2023/01/23 10:03:32;;;;;;;5.40;3.85;;;3.60;99.90;;;;;;4963748;28;20055;-62
2023/01/23 10:06:18;;;;;;;7.60;4.68;;;3.60;99.90;;;;;;4955780;28;20050;-62
2023/01/23 10:08:58;;;;;;;7.65;4.55;;;3.80;99.90;;;;;;4972552;28;20066;-62
2023/01/23 10:11:36;;;;;;;6.53;4.80;;;3.70;99.90;;;;;;4973463;28;20055;-62
2023/01/23 10:14:25;;;;;;;6.38;4.38;;;3.70;99.90;;;;;;4956520;28;20050;-61
2023/01/23 10:17:06;;;;;;;6.15;4.43;;;3.80;99.90;;;;;;4974152;28;20047;-62
2023/01/23 10:19:49;;;;;;;6.57;4.25;;;3.80;99.90;;;;;;4973247;28;20058;-62
2023/01/23 10:22:33;;;;;;;6.20;4.50;;;3.80;99.90;;;;;;4974103;28;20046;-61
2023/01/23 10:25:02;;;;;;;6.55;4.20;;;3.90;99.90;;;;;;4956894;28;20070;-62
2023/01/23 10:27:34;;;;;;;6.07;4.63;;;3.90;99.90;;;;;;4973189;28;20086;-62
2023/01/23 10:30:05;;;;;;;7.20;4.90;;;3.90;99.90;;;;;;4972401;28;20046;-62
2023/01/23 10:32:44;;;;;;;6.45;4.70;;;3.90;99.90;;;;;;4954089;28;20070;-62
2023/01/23 10:35:15;;;;;;;7.63;5.15;;;3.90;99.90;;;;;;4971725;28;20062;-62
2023/01/23 10:37:46;;;;;;;6.53;5.07;;;3.90;99.90;;;;;;4954150;28;20047;-62
2023/01/23 10:40:15;;;;;;;6.80;5.00;;;3.80;99.90;;;;;;4956239;28;20400;-61
2023/01/23 10:42:43;;;;;;;7.50;5.30;;;3.80;99.90;;;;;;4955333;28;20060;-62
2023/01/23 10:45:18;;;;;;;7.75;5.78;;;3.80;99.90;;;;;;4972092;28;20556;-62
2023/01/23 10:47:48;;;;;;;7.65;5.32;;;3.80;99.90;;;;;;4973305;28;20051;-62
2023/01/23 10:50:15;;;;;;;8.73;5.80;;;3.80;99.90;;;;;;4955153;28;20518;-62
2023/01/23 10:52:44;;;;;;;9.50;6.47;;;3.80;99.90;;;;;;4954823;28;20058;-61
2023/01/23 10:55:28;;;;;;;10.63;6.65;;;3.90;99.90;;;;;;4954346;28;20507;-63
2023/01/23 10:57:57;;;;;;;8.77;6.60;;;3.90;99.90;;;;;;4954984;28;20468;-63
2023/01/23 11:00:29;;;;;;;10.63;6.95;;;3.90;99.90;;;;;;4957839;28;20057;-63
2023/01/23 11:03:24;;;;;;;9.63;7.05;;;4.00;99.90;;;;;;4956433;28;20059;-63
2023/01/23 11:05:53;;;;;;;11.70;6.63;;;4.00;99.90;;;;;;4972885;28;20043;-63
2023/01/23 11:08:26;;;;;;;9.93;7.32;;;4.00;99.90;;;;;;4970968;28;20415;-61
2023/01/23 11:10:53;;;;;;;7.90;6.38;;;4.00;99.90;;;;;;4953520;28;20392;-62
2023/01/23 11:13:28;;;;;;;8.13;5.97;;;4.10;99.90;;;;;;4969893;28;20050;-62
2023/01/23 11:15:56;;;;;;;9.80;6.65;;;4.20;99.90;;;;;;4973294;28;20046;-61
2023/01/23 11:18:32;;;;;;;10.48;6.55;;;4.20;99.90;;;;;;4953997;28;20054;-61
2023/01/23 11:20:59;;;;;;;8.45;6.30;;;4.10;99.90;;;;;;4957345;28;20058;-62
2023/01/23 11:23:26;;;;;;;35.92;11.55;;;4.10;99.90;;;;;;4953895;28;20062;-62
2023/01/23 11:25:54;;;;;;;11.50;7.18;;;4.20;99.90;;;;;;4946947;28;20411;-62
2023/01/23 11:28:25;;;;;;;13.32;7.30;;;4.20;99.90;;;;;;4955330;28;20054;-63
2023/01/23 11:30:56;;;;;;;8.93;6.28;;;4.20;99.90;;;;;;4969670;28;20088;-63
2023/01/23 11:33:33;;;;;;;;;;;4.20;99.90;;;;;;4962798;28;20055;-63
2023/01/23 11:36:06;;;;;;;12.00;7.65;;;4.20;99.90;;;;;;4960468;28;19930;-61
2023/01/23 11:38:40;;;;;;;12.63;7.05;;;4.30;99.90;;;;;;4971125;28;20066;-63
2023/01/23 11:41:10;;;;;;;10.68;6.72;;;4.30;99.90;;;;;;4971123;28;20507;-62
2023/01/23 11:43:38;;;;;;;9.52;7.30;;;4.40;99.90;;;;;;4973486;28;20076;-61
2023/01/23 11:46:26;;;;;;;10.93;7.20;;;4.40;99.90;;;;;;4953984;28;20055;-62
2023/01/23 11:49:08;;;;;;;11.50;7.25;;;4.50;99.90;;;;;;4971571;28;20050;-61
2023/01/23 11:51:41;;;;;;;11.00;7.60;;;4.50;99.90;;;;;;4968437;28;20051;-63
2023/01/23 11:54:21;;;;;;;9.82;7.03;;;4.50;99.90;;;;;;4958155;28;20502;-62
2023/01/23 11:57:01;;;;;;;8.82;6.47;;;4.50;99.90;;;;;;4969898;28;20447;-62
2023/01/23 11:59:46;;;;;;;9.83;6.43;;;4.50;99.90;;;;;;4971956;28;20046;-62
2023/01/23 12:02:46;;;;;;;9.00;6.53;;;4.50;99.90;;;;;;4953535;28;20046;-62
2023/01/23 12:05:42;;;;;;;10.63;7.30;;;4.60;99.90;;;;;;4941226;28;20561;-62
2023/01/23 12:08:22;;;;;;;9.25;6.50;;;4.70;99.90;;;;;;4952924;28;20504;-61
2023/01/23 12:10:57;;;;;;;8.98;6.03;;;4.80;99.90;;;;;;4971729;28;20062;-62
2023/01/23 12:13:50;;;;;;;8.52;5.55;;;4.80;99.90;;;;;;4958227;28;20058;-61
2023/01/23 12:16:24;;;;;;;8.32;5.88;;;4.90;99.90;;;;;;4971872;28;20050;-61
2023/01/23 12:19:06;;;;;;;10.68;6.13;;;4.90;99.90;;;;;;4971326;28;20057;-61
2023/01/23 12:21:41;;;;;;;7.70;5.30;;;5.00;99.90;;;;;;4952928;28;20411;-62
2023/01/23 12:24:17;;;;;;;7.13;5.07;;;5.10;99.90;;;;;;4952040;28;20055;-62
2023/01/23 12:26:57;;;;;;;6.63;4.15;;;5.10;99.90;;;;;;4970373;28;20062;-61
2023/01/23 12:29:52;;;;;;;7.55;4.80;;;5.00;99.90;;;;;;4971357;28;20059;-61
2023/01/23 12:32:37;;;;;;;7.68;5.75;;;5.00;99.90;;;;;;4965610;28;20046;-60
2023/01/23 12:35:20;;;;;;;7.82;5.38;;;4.90;99.90;;;;;;4954177;28;20055;-61
2023/01/23 12:38:13;;;;;;;8.20;5.25;;;4.80;99.90;;;;;;4968391;28;20054;-63
2023/01/23 12:40:44;;;;;;;5.95;3.60;;;4.80;99.90;;;;;;4951821;28;20051;-62
2023/01/23 12:43:16;;;;;;;6.63;4.95;;;4.70;99.90;;;;;;4974581;28;20487;-61
2023/01/23 12:45:49;;;;;;;6.03;4.22;;;4.60;99.90;;;;;;4958576;28;20047;-62
2023/01/23 12:48:22;;;;;;;3.58;2.38;;;4.50;99.90;;;;;;4956203;28;20098;-61
2023/01/23 12:50:54;;;;;;;3.47;2.67;;;4.40;99.90;;;;;;4973245;28;20062;-62
2023/01/23 12:53:23;;;;;;;4.63;3.20;;;4.40;99.90;;;;;;4974758;28;20049;-61
2023/01/23 12:55:57;;;;;;;6.65;4.45;;;4.40;99.90;;;;;;4974178;28;20411;-61
2023/01/23 12:58:26;;;;;;;5.80;4.13;;;4.30;99.90;;;;;;4973391;28;20051;-62
2023/01/23 13:01:08;;;;;;;8.35;5.53;;;4.40;99.90;;;;;;4956970;28;20082;-62
2023/01/23 13:03:47;;;;;;;7.35;5.22;;;4.40;99.90;;;;;;4973883;28;20050;-62
2023/01/23 13:06:41;;;;;;;7.13;5.00;;;4.40;99.90;;;;;;4973977;28;20066;-64
2023/01/23 13:09:16;;;;;;;6.95;5.13;;;4.30;99.90;;;;;;4957921;28;20062;-62
2023/01/23 13:11:52;;;;;;;8.70;5.68;;;4.40;99.90;;;;;;4955381;28;20063;-62
2023/01/23 13:14:23;;;;;;;7.43;5.38;;;4.40;99.90;;;;;;4975282;28;20403;-61
2023/01/23 13:16:52;;;;;;;;;;;4.40;99.90;;;;;;4974458;28;20090;-61